Time;durP1;ratioP1;P1;durP2;ratioP2;P2;SDS_P1;SDS_P2;PMS_P1;PMS_P2;Temp;Humidity;BMP_temperature;BMP_pressure;BME280_temperature;BME280_humidity;BME280_pressure;Samples;Min_cycle;Max_cycle;Signal;HPM_P1;HPM_P2
2023/08/24 00:01:16;;;;;;;8.00;4.82;;;;;;;21.37;68.23;101694.72;5056226;28;20029;-59
2023/08/24 00:03:43;;;;;;;11.75;4.70;;;;;;;21.23;69.04;101692.28;5056508;28;20052;-60
2023/08/24 00:06:09;;;;;;;6.50;4.50;;;;;;;21.28;69.12;101690.38;5055915;28;20025;-60
2023/08/24 00:08:34;;;;;;;11.00;5.10;;;;;;;21.33;69.79;101680.50;5056385;28;20455;-60
2023/08/24 00:11:00;;;;;;;8.82;5.00;;;;;;;21.30;69.38;101680.50;5056046;28;20116;-60
2023/08/24 00:13:25;;;;;;;7.30;4.82;;;;;;;21.13;69.75;101688.91;5056041;28;20029;-60
2023/08/24 00:15:53;;;;;;;10.27;5.15;;;;;;;21.02;70.07;101696.28;5056244;28;20466;-60
2023/08/24 00:18:19;;;;;;;8.25;5.00;;;;;;;20.94;70.49;101696.44;5055685;28;20021;-60
2023/08/24 00:20:44;;;;;;;9.10;5.25;;;;;;;20.79;70.51;101694.03;5055878;28;20018;-60
2023/08/24 00:23:10;;;;;;;8.15;5.10;;;;;;;20.78;70.74;101692.25;5055855;28;20032;-60
2023/08/24 00:25:35;;;;;;;7.95;4.95;;;;;;;20.79;70.98;101680.59;5055984;28;20168;-60
2023/08/24 00:28:01;;;;;;;8.18;5.28;;;;;;;20.86;70.68;101679.56;5055682;28;20025;-60
2023/08/24 00:30:26;;;;;;;8.98;4.80;;;;;;;20.98;70.38;101670.38;5055394;28;20028;-60
2023/08/24 00:32:51;;;;;;;9.20;5.28;;;;;;;21.08;70.03;101665.72;5055181;28;20052;-60
2023/08/24 00:35:17;;;;;;;6.97;5.00;;;;;;;21.07;69.49;101666.63;5055517;28;20033;-60
2023/08/24 00:37:42;;;;;;;10.15;5.20;;;;;;;20.91;69.97;101677.69;5055500;28;20035;-61
2023/08/24 00:40:09;;;;;;;9.75;5.22;;;;;;;20.87;70.54;101680.47;5055243;28;20431;-60
2023/08/24 00:42:42;;;;;;;10.18;5.90;;;;;;;20.95;70.76;101681.22;5055505;28;20040;-60
2023/08/24 00:45:09;;;;;;;9.80;5.40;;;;;;;20.89;70.43;101676.81;5054747;28;20032;-60
2023/08/24 00:47:36;;;;;;;10.20;5.45;;;;;;;20.85;70.64;101674.22;5037506;28;20033;-60
2023/08/24 00:50:03;;;;;;;11.50;6.00;;;;;;;20.91;70.75;101668.75;5037411;28;20089;-60
2023/08/24 00:52:32;;;;;;;8.85;5.88;;;;;;;20.82;71.34;101655.50;5055217;28;20082;-61
2023/08/24 00:54:59;;;;;;;9.98;5.82;;;;;;;20.65;72.07;101651.31;5053931;28;20057;-60
2023/08/24 00:57:27;;;;;;;10.68;5.78;;;;;;;20.60;71.58;101650.50;5055146;28;20509;-60
2023/08/24 00:59:52;;;;;;;10.68;5.72;;;;;;;20.54;71.96;101658.66;5055317;28;20378;-60
2023/08/24 01:02:18;;;;;;;10.23;5.47;;;;;;;20.59;71.75;101658.56;5055131;28;20041;-59
2023/08/24 01:04:46;;;;;;;10.25;5.65;;;;;;;20.59;72.33;101661.25;5055130;28;20044;-59
2023/08/24 01:07:12;;;;;;;8.70;5.47;;;;;;;20.69;71.82;101661.09;5055326;28;20355;-60
2023/08/24 01:09:37;;;;;;;12.02;5.57;;;;;;;20.53;72.41;101664.06;5054867;28;20532;-60
2023/08/24 01:12:16;;;;;;;7.82;5.28;;;;;;;20.67;71.73;101657.53;5054737;28;20536;-60
2023/08/24 01:15:05;;;;;;;15.20;5.78;;;;;;;20.61;72.34;101660.34;5054859;28;20039;-60
2023/08/24 01:17:32;;;;;;;10.68;5.65;;;;;;;20.67;72.56;101648.59;5041419;28;20052;-61
2023/08/24 01:19:59;;;;;;;9.00;5.82;;;;;;;20.59;72.71;101647.81;5053314;28;20032;-60
2023/08/24 01:22:27;;;;;;;9.07;6.10;;;;;;;20.36;74.01;101658.94;5054932;28;20064;-60
2023/08/24 01:25:04;;;;;;;7.97;5.95;;;;;;;20.41;73.56;101655.25;5054680;28;20021;-60
2023/08/24 01:27:34;;;;;;;13.40;5.60;;;;;;;20.51;73.54;101653.31;5054659;28;20475;-60
2023/08/24 01:30:00;;;;;;;9.68;5.80;;;;;;;20.61;73.27;101643.34;5054727;28;20471;-60
2023/08/24 01:32:26;;;;;;;7.47;5.38;;;;;;;20.56;73.50;101642.53;5054183;28;20045;-60
2023/08/24 01:34:51;;;;;;;7.80;5.40;;;;;;;20.57;73.02;101642.50;5054436;28;20443;-60
2023/08/24 01:37:17;;;;;;;9.77;6.07;;;;;;;20.37;74.07;101648.16;5054604;28;20032;-60
2023/08/24 01:39:50;;;;;;;9.10;6.20;;;;;;;20.29;74.83;101649.22;5054514;28;20025;-61
2023/08/24 01:42:20;;;;;;;11.30;5.97;;;;;;;20.24;75.02;101655.53;5054469;28;20037;-60
2023/08/24 01:44:50;;;;;;;11.15;5.93;;;;;;;20.35;74.73;101649.13;5054206;28;20024;-59
2023/08/24 01:47:18;;;;;;;12.52;6.30;;;;;;;20.45;74.47;101645.38;5054316;28;20139;-60
2023/08/24 01:49:44;;;;;;;9.00;6.07;;;;;;;20.49;74.21;101645.31;5054214;28;20095;-60
2023/08/24 01:52:11;;;;;;;7.95;5.82;;;;;;;20.60;74.06;101644.22;5054233;28;20175;-59
2023/08/24 01:54:37;;;;;;;9.02;5.90;;;;;;;20.55;73.89;101641.63;5054037;28;20048;-59
2023/08/24 01:57:05;;;;;;;17.38;6.10;;;;;;;20.58;74.13;101646.06;5053139;28;20110;-60
2023/08/24 01:59:30;;;;;;;8.65;6.03;;;;;;;20.64;73.96;101652.22;5053913;28;20494;-60
2023/08/24 02:01:55;;;;;;;9.23;6.05;;;;;;;20.61;74.15;101659.44;5054024;28;20036;-61
2023/08/24 02:04:21;;;;;;;8.63;5.90;;;;;;;20.64;74.08;101657.59;5053861;28;20048;-61
2023/08/24 02:06:46;;;;;;;12.52;6.05;;;;;;;20.64;74.16;101662.97;5053830;28;20029;-60
2023/08/24 02:09:12;;;;;;;11.05;5.95;;;;;;;20.75;73.82;101652.00;5053620;28;20056;-60
2023/08/24 02:11:37;;;;;;;9.48;5.75;;;;;;;20.75;73.86;101652.00;5035762;28;20029;-60
2023/08/24 02:14:02;;;;;;;9.00;6.05;;;;;;;20.69;74.36;101644.09;5053614;28;20526;-60
2023/08/24 02:16:28;;;;;;;9.07;5.88;;;;;;;20.62;75.10;101637.94;5053898;28;20087;-61
2023/08/24 02:18:53;;;;;;;10.80;5.75;;;;;;;20.67;74.67;101635.16;5053502;28;20233;-61
2023/08/24 02:21:18;;;;;;;8.40;5.97;;;;;;;20.71;74.47;101626.13;5053590;28;20029;-61
2023/08/24 02:23:44;;;;;;;14.00;5.93;;;;;;;20.60;74.81;101630.78;5053450;28;20052;-60
2023/08/24 02:26:09;;;;;;;9.45;5.90;;;;;;;20.53;75.29;101642.59;5053435;28;20025;-61
2023/08/24 02:28:37;;;;;;;9.77;6.18;;;;;;;20.42;75.90;101642.72;5053464;28;20063;-60
2023/08/24 02:31:03;;;;;;;11.90;5.78;;;;;;;20.41;75.82;101636.47;5053451;28;20562;-60
2023/08/24 02:33:29;;;;;;;11.68;6.53;;;;;;;20.35;76.13;101633.91;5053248;28;20517;-60
2023/08/24 02:35:54;;;;;;;10.15;6.00;;;;;;;20.32;76.56;101638.44;5053420;28;20029;-60
2023/08/24 02:38:20;;;;;;;8.63;5.80;;;;;;;20.36;76.05;101648.22;5053561;28;20056;-61
2023/08/24 02:40:45;;;;;;;11.23;5.78;;;;;;;20.30;76.67;101642.91;5053072;28;20410;-60
2023/08/24 02:43:12;;;;;;;11.80;5.90;;;;;;;20.32;76.60;101635.75;5053136;28;20025;-61
2023/08/24 02:45:37;;;;;;;11.98;6.30;;;;;;;20.36;76.75;101629.41;5053392;28;20024;-60
2023/08/24 02:48:03;;;;;;;9.05;5.82;;;;;;;20.38;76.82;101606.97;5053130;28;20086;-60
2023/08/24 02:50:29;;;;;;;11.10;6.30;;;;;;;20.34;77.20;101599.00;5053302;28;20033;-61
2023/08/24 02:52:54;;;;;;;10.27;5.80;;;;;;;20.32;77.58;101595.50;5053360;28;20532;-60
2023/08/24 02:55:19;;;;;;;11.85;6.25;;;;;;;20.33;77.35;101591.88;5053377;28;20036;-61
2023/08/24 02:57:45;;;;;;;10.57;6.10;;;;;;;20.36;77.33;101589.16;5052977;28;20029;-61
2023/08/24 03:00:13;;;;;;;9.00;5.75;;;;;;;20.37;77.32;101578.38;5052943;28;20421;-61
2023/08/24 03:02:39;;;;;;;9.13;6.18;;;;;;;20.34;77.77;101574.84;5053180;28;20037;-60
2023/08/24 03:05:05;;;;;;;11.38;6.07;;;;;;;20.23;78.36;101559.84;5052881;28;20025;-61
2023/08/24 03:07:30;;;;;;;9.85;5.88;;;;;;;20.18;78.34;101561.72;5053147;28;20114;-61
2023/08/24 03:09:55;;;;;;;11.48;6.60;;;;;;;20.08;79.54;101535.94;5052792;28;20036;-61
2023/08/24 03:12:21;;;;;;;12.70;6.93;;;;;;;19.93;80.45;101509.41;5052806;28;20071;-62
2023/08/24 03:14:46;;;;;;;14.02;7.13;;;;;;;19.87;80.86;101505.03;5052884;28;20079;-61
2023/08/24 03:17:12;;;;;;;9.82;6.85;;;;;;;19.85;81.45;101488.06;5052845;28;20033;-62
2023/08/24 03:19:37;;;;;;;11.60;7.50;;;;;;;19.77;82.25;101481.94;5052501;28;20105;-61
2023/08/24 03:22:03;;;;;;;14.00;7.97;;;;;;;19.62;83.01;101492.97;5052804;28;20061;-61
2023/08/24 03:24:28;;;;;;;11.65;7.90;;;;;;;19.51;84.74;101496.63;5052958;28;20033;-61
2023/08/24 03:26:53;;;;;;;14.18;8.45;;;;;;;19.55;85.15;101493.91;5052863;28;20040;-60
2023/08/24 03:29:19;;;;;;;11.90;8.35;;;;;;;19.60;84.40;101484.88;5052949;28;20040;-60
2023/08/24 03:31:44;;;;;;;10.98;8.43;;;;;;;19.51;85.56;101466.28;5052680;28;20491;-61
2023/08/24 03:34:10;;;;;;;14.82;8.93;;;;;;;19.43;86.22;101466.38;5052263;28;20041;-62
2023/08/24 03:36:35;;;;;;;15.15;9.60;;;;;;;19.34;87.21;101452.25;5034806;28;20501;-61
2023/08/24 03:39:00;;;;;;;13.68;9.27;;;;;;;19.27;87.80;101449.69;5034583;28;20029;-61
2023/08/24 03:41:26;;;;;;;15.00;9.68;;;;;;;19.29;88.42;101454.13;5052274;28;20025;-61
2023/08/24 03:43:51;;;;;;;20.05;10.23;;;;;;;19.34;88.50;101445.09;5052747;28;20029;-61
2023/08/24 03:46:16;;;;;;;15.48;10.02;;;;;;;19.40;88.06;101436.06;5052822;28;20032;-61
2023/08/24 03:48:42;;;;;;;13.50;9.38;;;;;;;19.46;88.04;101436.84;5052431;28;20029;-60
2023/08/24 03:51:07;;;;;;;14.27;10.10;;;;;;;19.45;88.96;101439.56;5052366;28;20163;-61
2023/08/24 03:53:33;;;;;;;15.27;10.30;;;;;;;19.49;88.39;101444.88;5052601;28;20061;-61
2023/08/24 03:55:58;;;;;;;14.85;10.52;;;;;;;19.49;88.47;101452.91;5052737;28;20115;-60
2023/08/24 03:58:23;;;;;;;21.42;10.98;;;;;;;19.49;88.99;101452.03;5052675;28;20025;-61
2023/08/24 04:00:50;;;;;;;19.67;10.88;;;;;;;19.52;88.78;101457.31;5052447;28;20108;-60
2023/08/24 04:03:15;;;;;;;18.45;11.07;;;;;;;19.50;89.21;101454.66;5052334;28;20052;-61
2023/08/24 04:05:41;;;;;;;16.15;10.27;;;;;;;19.54;89.18;101460.88;5052228;28;20430;-60
2023/08/24 04:08:07;;;;;;;16.42;9.98;;;;;;;19.67;88.72;101475.00;5034511;28;20025;-60
2023/08/24 04:10:32;;;;;;;15.68;11.77;;;;;;;19.65;88.74;101477.66;5052086;28;20079;-61
2023/08/24 04:12:58;;;;;;;17.33;10.43;;;;;;;19.67;89.03;101469.63;5052279;28;20433;-61
2023/08/24 04:15:23;;;;;;;17.02;10.45;;;;;;;19.70;88.76;101477.63;5052429;28;20021;-61
2023/08/24 04:17:49;;;;;;;15.30;10.88;;;;;;;19.67;88.55;101470.50;5052453;28;20025;-61
2023/08/24 04:20:15;;;;;;;16.90;10.65;;;;;;;19.64;89.12;101467.00;5052970;28;20036;-61
2023/08/24 04:22:42;;;;;;;20.42;11.40;;;;;;;19.56;89.13;101461.72;5056080;28;20040;-61
2023/08/24 04:25:08;;;;;;;20.00;10.63;;;;;;;19.63;89.18;101473.28;5055734;28;20370;-60
2023/08/24 04:27:33;;;;;;;19.02;11.35;;;;;;;19.65;89.01;101466.94;5056150;28;20390;-61
2023/08/24 04:29:59;;;;;;;17.90;11.77;;;;;;;19.63;89.28;101474.16;5038018;28;20029;-61
2023/08/24 04:32:24;;;;;;;18.40;11.32;;;;;;;19.64;89.65;101477.72;5055386;28;20033;-62
2023/08/24 04:34:50;;;;;;;22.40;11.98;;;;;;;19.60;89.77;101471.47;5037691;28;20053;-61
2023/08/24 04:37:15;;;;;;;17.23;11.50;;;;;;;19.66;89.26;101474.09;5055844;28;20033;-61
2023/08/24 04:39:41;;;;;;;17.38;12.35;;;;;;;19.61;89.53;101483.13;5055764;28;20032;-62
2023/08/24 04:42:06;;;;;;;17.60;11.05;;;;;;;19.62;89.73;101480.44;5055301;28;20390;-61
2023/08/24 04:44:32;;;;;;;18.15;11.10;;;;;;;19.60;90.11;101484.00;5055485;28;20036;-61
2023/08/24 04:46:58;;;;;;;16.55;11.23;;;;;;;19.67;89.23;101472.31;5055407;28;20475;-61
2023/08/24 04:49:23;;;;;;;17.85;12.02;;;;;;;19.75;89.03;101468.59;5055049;28;20037;-61
2023/08/24 04:51:49;;;;;;;16.70;11.50;;;;;;;19.76;89.07;101477.50;5055150;28;20036;-61
2023/08/24 04:54:14;;;;;;;19.63;11.70;;;;;;;19.76;88.57;101473.03;5055044;28;20145;-61
2023/08/24 04:56:39;;;;;;;18.83;11.93;;;;;;;19.72;88.68;101468.63;5054783;28;20486;-62
2023/08/24 04:59:05;;;;;;;15.45;11.73;;;;;;;19.71;88.66;101474.03;5054244;28;20029;-61
2023/08/24 05:01:33;;;;;;;17.45;12.27;;;;;;;19.62;89.40;101467.03;5054622;28;20036;-60
2023/08/24 05:03:59;;;;;;;17.65;11.68;;;;;;;19.55;89.76;101464.44;5054741;28;20029;-60
2023/08/24 05:06:24;;;;;;;21.15;11.70;;;;;;;19.55;89.70;101468.00;5036585;28;20040;-62
2023/08/24 05:08:49;;;;;;;19.85;12.25;;;;;;;19.60;89.59;101467.91;5054733;28;20071;-61
2023/08/24 05:11:19;;;;;;;20.23;12.70;;;;;;;19.65;89.08;101471.44;5054580;28;20124;-62
2023/08/24 05:13:45;;;;;;;19.70;12.32;;;;;;;19.69;88.86;101476.72;5054430;28;20494;-61
2023/08/24 05:16:12;;;;;;;15.85;12.55;;;;;;;19.75;88.45;101479.31;5054389;28;20027;-62
2023/08/24 05:18:37;;;;;;;20.15;12.80;;;;;;;19.80;88.23;101481.91;5054238;28;20116;-60
2023/08/24 05:21:04;;;;;;;16.50;12.18;;;;;;;19.80;88.41;101479.22;5054366;28;20124;-62
2023/08/24 05:23:30;;;;;;;19.00;12.77;;;;;;;19.86;87.93;101473.75;5054328;28;20063;-62
2023/08/24 05:25:59;;;;;;;19.80;13.07;;;;;;;19.87;87.91;101464.81;5054445;28;20029;-61
2023/08/24 05:28:27;;;;;;;18.27;12.88;;;;;;;19.89;88.53;101470.13;5054060;28;20113;-60
2023/08/24 05:30:53;;;;;;;17.40;12.95;;;;;;;19.82;89.29;101466.66;5054112;28;20029;-60
2023/08/24 05:33:19;;;;;;;19.10;13.02;;;;;;;19.90;88.37;101456.69;5052518;28;20047;-61
2023/08/24 05:35:45;;;;;;;18.90;13.57;;;;;;;19.97;88.59;101453.00;5054065;28;20037;-61
2023/08/24 05:38:10;;;;;;;19.15;14.02;;;;;;;20.08;88.53;101463.50;5053763;28;20078;-62
2023/08/24 05:40:37;;;;;;;21.58;13.70;;;;;;;20.15;87.82;101454.44;5053847;28;20040;-62
2023/08/24 05:43:02;;;;;;;17.83;12.60;;;;;;;20.20;87.60;101457.03;5036058;28;20526;-61
2023/08/24 05:45:28;;;;;;;19.83;13.50;;;;;;;20.33;86.95;101453.19;5054174;28;20106;-61
2023/08/24 05:47:53;;;;;;;16.30;13.05;;;;;;;20.45;86.33;101439.53;5053622;28;20025;-62
2023/08/24 05:50:18;;;;;;;17.73;13.32;;;;;;;20.57;85.83;101435.72;5053746;28;20029;-62
2023/08/24 05:52:44;;;;;;;19.00;13.20;;;;;;;20.59;85.81;101438.38;5053653;28;20059;-60
2023/08/24 05:55:09;;;;;;;17.67;13.10;;;;;;;20.63;85.33;101443.66;5053724;28;20364;-61
2023/08/24 05:57:35;;;;;;;22.00;13.52;;;;;;;20.67;85.65;101442.66;5053571;28;20479;-60
2023/08/24 06:00:00;;;;;;;20.42;12.98;;;;;;;20.69;85.57;101435.47;5053784;28;20040;-60
2023/08/24 06:02:25;;;;;;;21.60;13.60;;;;;;;20.76;85.45;101426.34;5053379;28;20116;-62
2023/08/24 06:04:51;;;;;;;22.02;13.25;;;;;;;20.87;84.16;101423.44;5053473;28;20033;-62
2023/08/24 06:07:17;;;;;;;23.73;13.43;;;;;;;20.93;84.32;101411.66;5053409;28;20080;-61
2023/08/24 06:09:42;;;;;;;18.98;13.38;;;;;;;20.94;83.97;101406.28;5053644;28;20036;-62
2023/08/24 06:12:08;;;;;;;23.23;13.50;;;;;;;20.98;84.25;101399.00;5053243;28;20052;-62
2023/08/24 06:14:33;;;;;;;20.92;13.40;;;;;;;21.05;83.46;101397.94;5019253;28;20540;-61
2023/08/24 06:16:59;;;;;;;22.15;13.82;;;;;;;21.13;83.20;101373.56;5053319;28;20458;-62
2023/08/24 06:19:24;;;;;;;20.42;12.93;;;;;;;21.18;83.20;101363.59;5053034;28;20029;-60
2023/08/24 06:21:49;;;;;;;18.20;13.48;;;;;;;21.29;82.41;101374.09;5053061;28;20116;-61
2023/08/24 06:24:15;;;;;;;23.38;13.75;;;;;;;21.38;82.31;101379.25;5052975;28;20040;-61
2023/08/24 06:26:40;;;;;;;18.15;13.27;;;;;;;21.47;82.14;101387.09;5053005;28;20040;-61
2023/08/24 06:29:05;;;;;;;20.60;13.65;;;;;;;21.63;82.56;101395.66;5052990;28;20036;-62
2023/08/24 06:31:32;;;;;;;23.67;14.05;;;;;;;21.71;81.38;101397.22;5053010;28;20116;-61
2023/08/24 06:33:58;;;;;;;20.77;12.95;;;;;;;21.94;79.65;101401.06;5052636;28;20474;-61
2023/08/24 06:36:23;;;;;;;17.20;13.18;;;;;;;22.09;80.60;101402.44;5052698;28;20032;-61
2023/08/24 06:38:49;;;;;;;22.50;13.75;;;;;;;22.24;78.14;101405.63;5052732;28;20025;-61
2023/08/24 06:41:14;;;;;;;19.20;12.70;;;;;;;22.36;77.75;101401.72;5052544;28;20033;-62
2023/08/24 06:43:40;;;;;;;17.92;13.30;;;;;;;22.50;77.14;101403.97;5052378;28;20167;-61
2023/08/24 06:46:07;;;;;;;17.15;12.82;;;;;;;22.65;77.10;101394.53;5052852;28;20029;-62
2023/08/24 06:48:34;;;;;;;16.52;12.38;;;;;;;22.73;75.34;101395.19;5052956;28;20102;-62
2023/08/24 06:50:59;;;;;;;21.60;12.55;;;;;;;22.83;75.11;101388.59;5052734;28;20025;-61
2023/08/24 06:53:25;;;;;;;19.38;12.85;;;;;;;22.99;74.06;101389.88;5052909;28;20395;-61
2023/08/24 06:55:55;;;;;;;16.38;12.35;;;;;;;23.18;73.12;101402.78;5052856;28;20442;-62
2023/08/24 06:58:20;;;;;;;19.80;12.63;;;;;;;23.36;72.84;101401.31;5052504;28;20036;-61
2023/08/24 07:00:46;;;;;;;19.05;12.85;;;;;;;23.57;71.92;101394.28;5052604;28;20029;-61
2023/08/24 07:03:11;;;;;;;18.92;12.60;;;;;;;23.68;72.29;101390.34;5052505;28;20029;-61
2023/08/24 07:05:37;;;;;;;15.43;11.45;;;;;;;23.88;70.89;101386.91;5052457;28;20041;-60
2023/08/24 07:08:03;;;;;;;16.23;12.23;;;;;;;23.99;68.50;101392.81;5034607;28;20028;-61
2023/08/24 07:10:28;;;;;;;15.40;11.40;;;;;;;24.14;68.25;101385.94;5052162;28;20429;-62
2023/08/24 07:12:54;;;;;;;17.05;12.25;;;;;;;24.21;68.19;101384.78;5052662;28;20033;-60
2023/08/24 07:15:19;;;;;;;16.60;11.23;;;;;;;24.36;66.45;101379.75;5052655;28;20379;-62
2023/08/24 07:17:45;;;;;;;17.58;11.70;;;;;;;24.32;66.24;101375.41;5052361;28;20043;-61
2023/08/24 07:20:13;;;;;;;22.73;12.18;;;;;;;24.34;66.71;101379.81;5034593;28;20162;-61
2023/08/24 07:22:39;;;;;;;16.40;11.02;;;;;;;24.58;67.54;101372.63;5052583;28;20029;-61
2023/08/24 07:25:05;;;;;;;14.90;11.05;;;;;;;24.69;65.27;101364.09;5052439;28;20036;-61
2023/08/24 07:27:34;;;;;;;15.57;11.65;;;;;;;24.75;65.04;101366.53;5034326;28;20033;-61
2023/08/24 07:30:01;;;;;;;15.13;11.07;;;;;;;24.94;65.11;101363.97;5052385;28;20037;-61
2023/08/24 07:32:27;;;;;;;17.52;10.73;;;;;;;25.16;64.37;101374.81;5052614;28;20417;-61
2023/08/24 07:34:52;;;;;;;18.42;11.23;;;;;;;25.35;63.44;101374.91;5051906;28;20084;-60
2023/08/24 07:37:18;;;;;;;19.67;10.75;;;;;;;25.32;62.33;101365.13;5052428;28;20041;-61
2023/08/24 07:39:43;;;;;;;15.70;10.68;;;;;;;25.45;61.35;101360.06;5052028;28;20478;-61
2023/08/24 07:42:09;;;;;;;14.02;10.55;;;;;;;25.53;60.21;101366.03;5051995;28;20394;-60
2023/08/24 07:44:35;;;;;;;16.88;10.77;;;;;;;25.73;62.20;101355.19;5052236;28;20036;-61
2023/08/24 07:47:01;;;;;;;15.48;10.88;;;;;;;25.84;60.09;101360.19;5052108;28;20037;-61
2023/08/24 07:49:28;;;;;;;15.55;10.60;;;;;;;25.97;60.71;101353.25;5052037;28;20040;-61
2023/08/24 07:51:53;;;;;;;18.75;10.55;;;;;;;26.15;60.68;101353.38;5052061;28;20022;-60
2023/08/24 07:54:20;;;;;;;20.23;10.70;;;;;;;26.21;59.27;101347.69;5051916;28;20033;-60
2023/08/24 07:56:45;;;;;;;15.93;10.40;;;;;;;26.17;58.00;101359.59;5055118;28;20047;-60
2023/08/24 07:59:11;;;;;;;14.13;10.05;;;;;;;26.11;58.98;101351.75;5055652;28;20025;-60
2023/08/24 08:01:36;;;;;;;15.80;10.02;;;;;;;26.23;59.40;101354.75;5055888;28;20024;-60
2023/08/24 08:04:02;;;;;;;13.88;9.65;;;;;;;26.31;59.43;101345.41;5055668;28;20040;-60
2023/08/24 08:06:27;;;;;;;16.02;9.82;;;;;;;26.35;59.29;101366.88;5055832;28;20021;-60
2023/08/24 08:08:53;;;;;;;18.50;10.07;;;;;;;26.46;58.47;101360.97;5055661;28;20024;-61
2023/08/24 08:11:18;;;;;;;14.45;10.15;;;;;;;26.23;58.02;101359.31;5055440;28;20486;-61
2023/08/24 08:13:44;;;;;;;18.25;10.43;;;;;;;26.30;57.99;101352.66;5055704;28;20021;-61
2023/08/24 08:16:10;;;;;;;18.17;10.10;;;;;;;26.44;58.34;101360.16;5055781;28;20378;-62
2023/08/24 08:18:36;;;;;;;14.57;10.15;;;;;;;26.39;56.48;101362.19;5055573;28;20093;-62
2023/08/24 08:21:09;;;;;;;17.38;9.85;;;;;;;26.63;57.43;101355.63;5055268;28;20120;-61
2023/08/24 08:23:34;;;;;;;14.40;9.77;;;;;;;26.81;56.80;101352.97;5055513;28;20486;-60
2023/08/24 08:26:00;;;;;;;14.38;9.85;;;;;;;27.01;56.31;101349.28;5055222;28;20104;-61
2023/08/24 08:28:25;;;;;;;16.50;9.48;;;;;;;27.13;55.07;101348.69;5055173;28;20037;-60
2023/08/24 08:30:51;;;;;;;16.70;10.00;;;;;;;27.26;56.37;101338.09;5055144;28;20052;-61
2023/08/24 08:33:16;;;;;;;16.40;10.10;;;;;;;27.37;55.21;101325.75;5055053;28;20079;-61
2023/08/24 08:35:42;;;;;;;15.13;9.35;;;;;;;27.45;55.21;101331.66;5055034;28;20025;-61
2023/08/24 08:38:08;;;;;;;16.83;9.40;;;;;;;27.59;53.66;101327.34;5055097;28;20478;-61
2023/08/24 08:40:37;;;;;;;18.88;9.65;;;;;;;27.63;56.01;101320.78;5054981;28;20029;-61
2023/08/24 08:43:02;;;;;;;12.93;9.30;;;;;;;27.68;55.17;101321.41;5055465;28;20017;-61
2023/08/24 08:45:28;;;;;;;18.88;9.25;;;;;;;27.63;55.14;101315.34;5055032;28;20025;-61
2023/08/24 08:48:01;;;;;;;13.60;9.90;;;;;;;27.46;55.41;101298.13;5054966;28;20025;-61
2023/08/24 08:50:27;;;;;;;13.32;9.98;;;;;;;27.44;54.96;101289.16;5055069;28;20359;-60
2023/08/24 08:52:53;;;;;;;16.42;10.57;;;;;;;27.43;56.35;101286.53;5055128;28;20025;-61
2023/08/24 08:55:19;;;;;;;18.98;10.25;;;;;;;27.49;56.63;101286.19;5055077;28;20029;-60
2023/08/24 08:57:47;;;;;;;15.48;10.38;;;;;;;27.48;55.82;101278.16;5054776;28;20090;-60
2023/08/24 09:00:16;;;;;;;13.10;9.80;;;;;;;27.54;55.80;101264.28;5054911;28;20180;-61
2023/08/24 09:02:44;;;;;;;14.38;10.27;;;;;;;27.57;55.48;101255.94;5054789;28;20055;-61
2023/08/24 09:05:11;;;;;;;15.48;10.50;;;;;;;27.62;55.43;101249.31;5054527;28;20021;-61
2023/08/24 09:07:39;;;;;;;14.10;10.43;;;;;;;27.72;56.09;101244.25;5054464;28;20025;-61
2023/08/24 09:10:06;;;;;;;16.20;10.80;;;;;;;27.84;55.68;101227.31;5036439;28;20494;-60
2023/08/24 09:12:35;;;;;;;19.38;10.55;;;;;;;28.02;55.63;101217.28;5054591;28;20049;-61
2023/08/24 09:15:04;;;;;;;15.88;10.93;;;;;;;28.14;55.74;101216.56;5054425;28;20032;-61
2023/08/24 09:17:30;;;;;;;20.00;10.65;;;;;;;28.25;54.94;101215.94;5054756;28;20099;-61
2023/08/24 09:19:58;;;;;;;15.88;9.82;;;;;;;28.39;55.75;101209.75;5054488;28;20448;-61
2023/08/24 09:22:24;;;;;;;15.25;10.50;;;;;;;28.34;55.18;101196.38;5054404;28;20509;-61
2023/08/24 09:24:50;;;;;;;17.52;10.18;;;;;;;28.34;55.19;101199.09;5054200;28;20032;-61
2023/08/24 09:27:20;;;;;;;22.77;9.60;;;;;;;28.46;54.88;101197.56;5054368;28;20111;-61
2023/08/24 09:29:50;;;;;;;15.60;10.20;;;;;;;28.54;54.69;101192.56;5054330;28;20029;-59
2023/08/24 09:32:15;;;;;;;12.35;9.70;;;;;;;28.63;54.31;101192.00;5054084;28;20483;-61
2023/08/24 09:34:41;;;;;;;16.98;9.27;;;;;;;28.62;54.94;101201.13;5053854;28;20048;-61
2023/08/24 09:37:15;;;;;;;16.60;9.48;;;;;;;28.61;53.83;101213.00;5054122;28;20040;-61
2023/08/24 09:39:41;;;;;;;18.63;8.38;;;;;;;28.73;54.12;101207.78;5054004;28;20112;-60
2023/08/24 09:42:06;;;;;;;17.17;9.27;;;;;;;28.68;53.37;101222.50;5053889;28;20390;-60
2023/08/24 09:44:31;;;;;;;13.05;8.70;;;;;;;28.78;54.27;101241.91;5053692;28;20116;-60
2023/08/24 09:46:57;;;;;;;14.45;8.45;;;;;;;28.76;53.80;101252.00;5053845;28;20422;-60
2023/08/24 09:49:22;;;;;;;15.25;8.55;;;;;;;28.83;53.43;101261.56;5053778;28;20471;-60
2023/08/24 09:51:49;;;;;;;14.98;8.45;;;;;;;28.85;52.49;101251.44;5054068;28;20044;-61
2023/08/24 09:54:16;;;;;;;14.60;7.93;;;;;;;28.82;53.83;101251.66;5035894;28;20051;-60
2023/08/24 09:56:43;;;;;;;13.88;8.45;;;;;;;28.69;53.41;101246.06;5053751;28;20546;-60
2023/08/24 09:59:18;;;;;;;12.35;7.70;;;;;;;28.70;54.01;101242.34;5053695;28;20124;-61
2023/08/24 10:01:47;;;;;;;13.25;7.40;;;;;;;28.64;53.91;101250.84;5053984;28;20100;-61
2023/08/24 10:04:14;;;;;;;10.93;7.63;;;;;;;28.66;53.24;101246.22;5053868;28;20035;-61
2023/08/24 10:06:42;;;;;;;13.80;7.47;;;;;;;28.61;54.20;101256.50;5053365;28;20039;-58
2023/08/24 10:09:14;;;;;;;14.73;7.35;;;;;;;28.58;54.65;101261.22;5053061;28;20033;-58
2023/08/24 10:11:49;;;;;;;11.85;7.18;;;;;;;28.59;54.97;101258.41;5053226;28;20033;-61
2023/08/24 10:14:44;;;;;;;13.82;6.82;;;;;;;28.65;55.23;101270.75;5053527;28;20032;-61
2023/08/24 10:17:11;;;;;;;13.02;6.85;;;;;;;28.52;55.54;101269.72;5053433;28;20071;-60
2023/08/24 10:19:37;;;;;;;15.63;6.93;;;;;;;28.60;55.71;101262.00;5052393;28;20393;-61
2023/08/24 10:22:03;;;;;;;13.00;6.85;;;;;;;28.54;53.90;101265.09;5053150;28;20490;-61
2023/08/24 10:24:31;;;;;;;14.77;7.28;;;;;;;28.40;54.76;101257.75;5053191;28;20111;-61
2023/08/24 10:26:57;;;;;;;10.18;7.03;;;;;;;28.26;55.39;101255.75;5053092;28;20025;-61
2023/08/24 10:29:24;;;;;;;13.40;7.63;;;;;;;28.11;55.65;101253.91;5053098;28;20029;-61
2023/08/24 10:31:50;;;;;;;16.52;7.65;;;;;;;28.04;55.18;101247.06;5052941;28;20457;-60
2023/08/24 10:34:16;;;;;;;16.35;7.13;;;;;;;28.05;56.23;101254.25;5052796;28;20590;-60
2023/08/24 10:36:41;;;;;;;14.10;7.82;;;;;;;27.83;58.01;101262.69;5035272;28;20112;-60
2023/08/24 10:39:07;;;;;;;13.60;7.35;;;;;;;27.73;58.90;101266.88;5053146;28;20426;-60
2023/08/24 10:41:49;;;;;;;14.00;7.35;;;;;;;27.68;58.14;101267.09;5052672;28;20383;-61
2023/08/24 10:44:24;;;;;;;13.98;8.38;;;;;;;27.40;60.33;101281.25;5052924;28;20025;-60
2023/08/24 10:47:12;;;;;;;15.57;8.57;;;;;;;27.31;60.38;101282.63;5052705;28;20037;-61
2023/08/24 10:49:37;;;;;;;14.63;8.45;;;;;;;27.28;61.18;101285.53;5052657;28;20036;-61
2023/08/24 10:52:31;;;;;;;11.63;8.27;;;;;;;27.17;61.85;101283.34;5052705;28;20021;-61
2023/08/24 10:54:56;;;;;;;14.07;7.72;;;;;;;27.04;62.05;101279.47;5052908;28;20112;-61
2023/08/24 10:57:24;;;;;;;13.68;8.20;;;;;;;26.86;64.09;101283.13;5052635;28;20071;-60
2023/08/24 11:00:05;;;;;;;11.23;7.22;;;;;;;26.85;63.63;101270.50;5052820;28;20139;-61
2023/08/24 11:02:44;;;;;;;14.40;7.00;;;;;;;26.73;63.98;101253.03;5052823;28;20037;-61
2023/08/24 11:05:42;;;;;;;14.77;5.78;;;;;;;26.67;62.84;101245.19;5034505;28;20132;-61
2023/08/24 11:08:07;;;;;;;13.07;5.88;;;;;;;26.62;61.53;101252.69;5052579;28;20112;-61
2023/08/24 11:10:41;;;;;;;13.57;6.13;;;;;;;26.58;62.18;101268.22;5052232;28;20112;-60
2023/08/24 11:13:09;;;;;;;11.65;6.35;;;;;;;26.58;61.26;101265.50;5052410;28;20368;-60